Southwest Florida International Airport
KRSW : now visible

Airfield :











YOU CAN JOIN US ON...

 
LOGIN :

Register | Disclaimer

   EN    FR    IT 

 









Legend :    VFR   Marginal VFR   IFR   Intensive IFR   Very Intensive IFR
Visi :
Ceiling :
>= 8 km
>= 3000ft
5 to 8 km
1000 to 3000 ft
1500m to 5 km
500 to 1000 ft
800 to 1500m
200 to 500 ft
< 800m
< 200 ft
Symbols :   Thunderstorms  Fog  Heavy snow  Heavy precipitations  Wind > 20 kt






- Airport Elevation : 30 ft
- IATA code : RSW


KRSW - Southwest Florida International

CURRENT METAR :
  • 242153Z 10012KT 10SM FEW038 BKN055 OVC090 29/22 A2984 RMK AO2 SLP101 T02890217

EXPIRED METARs :
  • 242053Z 10013KT 10SM FEW039 BKN070 31/22 A2982 RMK AO2 SLP096 T03110217 56017
  • 241953Z 12009G16KT 10SM FEW047 BKN060 31/21 A2983 RMK AO2 SLP099 T03060211

TAF KRSW
Valid from the 24 at 18:00 until the 25 at 18:00 UTC


241742Z 2418/2518 09011KT P6SM VCSH SCT035 BKN100
FM250100 VRB05KT P6SM SCT020 BKN100
FM251500 15008KT P6SM VCTS SCT025CB SCT050 BKN250
KZMA FIR / North America



MET'MAP, your aeronautical weather chart ! - Copyright ORBIFLY December 2007 - Disclaimer

ORBIFLY MET'MAP TEAM :

Programming & Development : Alexandra Zaïnal
Concept & original design : Baudouin d'Aumeries
Assistance for programming : Marc-Olivier Méhu
Technical & hardware support : Manuel Goepfert

Contact : metmap@orbifly.com




SOURCES & CREDITS :

   NOAA       Earth
Advisory